HESH/SSH METAR and TAF weather

Enter ICAO airport designator
Station Type Date Time Source
HESH METAR 2019/09/21 05:00 UTC NOAA

HESH 210500Z 36011KT CAVOK 29/27 Q1009 NOSIG


Station Type Date Time Source
HESH Decoded METAR 2019/09/21 05:00 UTC NOAA

Sharm El Sheikhintl, Egypt (HESH) 27-58N 034-23E
Sep 21, 2019 - 01:00 AM EDT / 2019.09.21 0500 UTC
Wind: from the N (360 degrees) at 13 MPH (11 KT):0
Visibility: greater than 7 mile(s):0
Temperature: 84 F (29 C)
Dew Point: 80 F (27 C)
Relative Humidity: 88%
Pressure (altimeter): 29.80 in. Hg (1009 hPa)
ob: HESH 210500Z 36011KT CAVOK 29/27 Q1009 NOSIG
cycle: 5

Station Type Date Time Source
HESH TAF 2019/09/21 06:33 UTC NOAA

TAF
AMD HESH 210500Z 2106/2212 01010G22KT CAVOK

Example: see airport list